FQQL

Quelimane Airport

Quelimane, Mozambique
METAR FQQL 192100Z 14004KT 9999 FEW020 25/23 Q1015
Observed Flight Rules
Oct-19 @ 21:00 UTC (5 hours ago) Visual Flight Rules
Wind Visibility Clouds
140° at 4 knots 10,000+ meters
  • Few at 2,000' AGL
Temperatures Readings
Current 25°C / 77°F
Dewpoint 23°C / 73°F
Humidity 89%
Altimeter 29.97" Hg
Pressure 1015 hPa
Elevation 16
METAR FQQL 192100Z 14004KT 9999 FEW020 25/23 Q1015
Observed Flight Rules
Oct-19 @ 21:00 UTC
(5 hours ago)
VFR
Wind Visibility
140° at 4 knots 10,000+ meters
Clouds
  • Few at 2,000' AGL
Temperature Dewpoint
25°C / 77°F 23°C / 73°F
Humidity Altimeter Pressure
89% 29.97" Hg 1015 hPa